< Typhoon 199304 1993 Season Typhoon 199306 >
Typhoon 199305 (OFELIA)
General InformationTrack Information on Google MapsDetailed Wind InformationList of All Images || Disaster Info.ResourceGoogle EarthGE AnimationAtom FeedGeoJSON
Detalied Best Track (Time Zone = UTC)
Year Month Day Hour Lat. Long. Pressure (hPa) Wind (kt) Class Image Chart
1993 7 24 18 16.8 138.5 1004 0 2 Image Chart
1993 7 25 00 18.6 138.3 1004 0 2 Image Chart
1993 7 25 06 20.1 137.5 1004 0 2 Image Chart
1993 7 25 12 21.4 136.4 1002 0 2 Image Chart
1993 7 25 18 22.9 135.3 998 40 3 Image Chart
1993 7 26 00 24.7 134.3 998 40 3 Image Chart
1993 7 26 03 25.1 133.9 998 40 3 Image Chart
1993 7 26 06 25.5 133.5 996 45 3 Image Chart
1993 7 26 09 25.9 133.1 996 45 3 Image Chart
1993 7 26 12 26.3 132.9 994 45 3 Image Chart
1993 7 26 15 26.7 132.7 994 45 3 Image Chart
1993 7 26 18 28.2 131.9 994 45 3 Image Chart
1993 7 26 21 29.4 131.5 994 45 3 Image Chart
1993 7 27 00 30.7 131.2 990 45 3 Image Chart
1993 7 27 02 31.2 131.0 990 40 3 Image Chart
1993 7 27 03 31.6 131.1 990 40 3 Image Chart
1993 7 27 06 32.9 131.5 990 40 3 Image Chart
1993 7 27 08 33.8 131.6 990 40 3 Image Chart
1993 7 27 09 34.3 131.9 992 40 3 Image Chart
1993 7 27 12 35.7 132.7 996 35 3 Image Chart
1993 7 27 18 38.0 134.0 1004 0 2 Image Chart
1993 7 28 00 40.0 135.0 1006 0 6 Image Chart
1993 7 28 06 41.0 135.0 1008 0 6 Image Chart
1993 7 28 12 41.5 135.5 1008 0 6 Image Chart
1993 7 28 18 41.5 135.5 1008 0 6 Image Chart
1993 7 29 00 41.5 135.5 1008 0 6 Image Chart
1993 7 29 06 42.0 135.5 1008 0 6 Image Chart
Japan Meteorological Agency Best Track Data | Correction Date : 1994-01-10
< Typhoon 199304 1993 Season Typhoon 199306 >

Help